sensor_id;sensor_type;location;lat;lon;timestamp;P1;durP1;ratioP1;P2;durP2;ratioP2
14892;SDS011;7538;53.626;9.906;2023-03-01T00:00:00;14.30;;;10.90;;
14892;SDS011;7538;53.626;9.906;2023-03-01T00:02:28;17.57;;;10.73;;
14892;SDS011;7538;53.626;9.906;2023-03-01T00:04:56;18.57;;;11.23;;
14892;SDS011;7538;53.626;9.906;2023-03-01T00:07:23;16.23;;;10.83;;
14892;SDS011;7538;53.626;9.906;2023-03-01T00:09:50;18.13;;;11.93;;
14892;SDS011;7538;53.626;9.906;2023-03-01T00:12:16;17.63;;;11.53;;
14892;SDS011;7538;53.626;9.906;2023-03-01T00:14:43;16.47;;;12.03;;
14892;SDS011;7538;53.626;9.906;2023-03-01T00:17:10;16.17;;;11.60;;
14892;SDS011;7538;53.626;9.906;2023-03-01T00:19:37;16.17;;;11.47;;
14892;SDS011;7538;53.626;9.906;2023-03-01T00:22:05;15.87;;;11.00;;
14892;SDS011;7538;53.626;9.906;2023-03-01T00:24:32;18.33;;;11.50;;
14892;SDS011;7538;53.626;9.906;2023-03-01T00:26:59;18.87;;;10.97;;
14892;SDS011;7538;53.626;9.906;2023-03-01T00:29:25;16.77;;;11.57;;
14892;SDS011;7538;53.626;9.906;2023-03-01T00:31:52;20.37;;;11.30;;
14892;SDS011;7538;53.626;9.906;2023-03-01T00:34:19;15.20;;;11.10;;
14892;SDS011;7538;53.626;9.906;2023-03-01T00:36:46;17.90;;;11.90;;
14892;SDS011;7538;53.626;9.906;2023-03-01T00:39:14;21.00;;;12.60;;
14892;SDS011;7538;53.626;9.906;2023-03-01T00:41:41;19.07;;;12.30;;
14892;SDS011;7538;53.626;9.906;2023-03-01T00:44:09;16.63;;;11.23;;
14892;SDS011;7538;53.626;9.906;2023-03-01T00:46:37;16.30;;;10.73;;
14892;SDS011;7538;53.626;9.906;2023-03-01T00:49:04;15.80;;;11.13;;
14892;SDS011;7538;53.626;9.906;2023-03-01T00:51:30;18.67;;;11.60;;
14892;SDS011;7538;53.626;9.906;2023-03-01T00:53:58;17.47;;;11.80;;
14892;SDS011;7538;53.626;9.906;2023-03-01T00:56:28;16.17;;;11.10;;
14892;SDS011;7538;53.626;9.906;2023-03-01T00:58:55;16.67;;;10.97;;
14892;SDS011;7538;53.626;9.906;2023-03-01T01:01:22;16.37;;;11.73;;
14892;SDS011;7538;53.626;9.906;2023-03-01T01:03:52;15.73;;;11.27;;
14892;SDS011;7538;53.626;9.906;2023-03-01T01:06:21;16.37;;;10.90;;
14892;SDS011;7538;53.626;9.906;2023-03-01T01:08:50;14.03;;;10.23;;
14892;SDS011;7538;53.626;9.906;2023-03-01T01:11:18;17.60;;;10.97;;
14892;SDS011;7538;53.626;9.906;2023-03-01T01:13:47;17.33;;;10.27;;
14892;SDS011;7538;53.626;9.906;2023-03-01T01:16:14;15.27;;;10.10;;
14892;SDS011;7538;53.626;9.906;2023-03-01T01:18:42;14.40;;;10.07;;
14892;SDS011;7538;53.626;9.906;2023-03-01T01:21:10;14.97;;;9.87;;
14892;SDS011;7538;53.626;9.906;2023-03-01T01:23:38;13.40;;;10.07;;
14892;SDS011;7538;53.626;9.906;2023-03-01T01:26:06;13.40;;;9.50;;
14892;SDS011;7538;53.626;9.906;2023-03-01T01:28:34;15.33;;;9.17;;
14892;SDS011;7538;53.626;9.906;2023-03-01T01:31:02;14.67;;;8.17;;
14892;SDS011;7538;53.626;9.906;2023-03-01T01:33:30;14.37;;;9.67;;
14892;SDS011;7538;53.626;9.906;2023-03-01T01:35:57;14.03;;;9.30;;
14892;SDS011;7538;53.626;9.906;2023-03-01T01:38:23;16.57;;;9.57;;
14892;SDS011;7538;53.626;9.906;2023-03-01T01:40:50;14.33;;;9.50;;
14892;SDS011;7538;53.626;9.906;2023-03-01T01:43:19;14.07;;;9.10;;
14892;SDS011;7538;53.626;9.906;2023-03-01T01:45:47;14.43;;;9.43;;
14892;SDS011;7538;53.626;9.906;2023-03-01T01:48:18;14.60;;;9.67;;
14892;SDS011;7538;53.626;9.906;2023-03-01T01:50:49;14.30;;;9.57;;
14892;SDS011;7538;53.626;9.906;2023-03-01T01:53:21;13.97;;;9.40;;
14892;SDS011;7538;53.626;9.906;2023-03-01T01:55:49;13.33;;;8.83;;
14892;SDS011;7538;53.626;9.906;2023-03-01T01:58:22;13.07;;;8.83;;
14892;SDS011;7538;53.626;9.906;2023-03-01T02:00:51;14.63;;;9.33;;
14892;SDS011;7538;53.626;9.906;2023-03-01T02:03:23;16.93;;;9.70;;
14892;SDS011;7538;53.626;9.906;2023-03-01T02:05:56;15.67;;;10.30;;
14892;SDS011;7538;53.626;9.906;2023-03-01T02:08:30;13.43;;;9.03;;
14892;SDS011;7538;53.626;9.906;2023-03-01T02:11:01;13.03;;;9.13;;
14892;SDS011;7538;53.626;9.906;2023-03-01T02:13:29;16.73;;;9.97;;
14892;SDS011;7538;53.626;9.906;2023-03-01T02:15:56;15.17;;;9.23;;
14892;SDS011;7538;53.626;9.906;2023-03-01T02:18:25;16.07;;;9.60;;
14892;SDS011;7538;53.626;9.906;2023-03-01T02:20:56;13.37;;;9.43;;
14892;SDS011;7538;53.626;9.906;2023-03-01T02:23:33;12.73;;;8.57;;
14892;SDS011;7538;53.626;9.906;2023-03-01T02:26:02;14.23;;;9.10;;
14892;SDS011;7538;53.626;9.906;2023-03-01T02:28:35;13.33;;;9.23;;
14892;SDS011;7538;53.626;9.906;2023-03-01T02:31:04;13.33;;;9.13;;
14892;SDS011;7538;53.626;9.906;2023-03-01T02:33:50;12.60;;;8.40;;
14892;SDS011;7538;53.626;9.906;2023-03-01T02:36:19;12.80;;;8.73;;
14892;SDS011;7538;53.626;9.906;2023-03-01T02:38:47;13.90;;;9.47;;
14892;SDS011;7538;53.626;9.906;2023-03-01T02:41:16;13.50;;;8.37;;
14892;SDS011;7538;53.626;9.906;2023-03-01T02:43:46;13.83;;;8.70;;
14892;SDS011;7538;53.626;9.906;2023-03-01T02:46:14;10.43;;;8.73;;
14892;SDS011;7538;53.626;9.906;2023-03-01T02:48:44;10.33;;;8.10;;
14892;SDS011;7538;53.626;9.906;2023-03-01T02:51:17;12.33;;;8.43;;
14892;SDS011;7538;53.626;9.906;2023-03-01T02:53:53;13.17;;;9.23;;
14892;SDS011;7538;53.626;9.906;2023-03-01T02:56:29;13.27;;;8.83;;
14892;SDS011;7538;53.626;9.906;2023-03-01T02:58:57;13.90;;;9.30;;
14892;SDS011;7538;53.626;9.906;2023-03-01T03:01:26;15.97;;;9.93;;
14892;SDS011;7538;53.626;9.906;2023-03-01T03:04:02;15.00;;;10.13;;
14892;SDS011;7538;53.626;9.906;2023-03-01T03:06:32;14.50;;;10.83;;
14892;SDS011;7538;53.626;9.906;2023-03-01T03:09:03;17.30;;;10.60;;
14892;SDS011;7538;53.626;9.906;2023-03-01T03:11:30;17.43;;;10.67;;
14892;SDS011;7538;53.626;9.906;2023-03-01T03:13:58;18.20;;;11.57;;
14892;SDS011;7538;53.626;9.906;2023-03-01T03:16:25;13.40;;;10.03;;
14892;SDS011;7538;53.626;9.906;2023-03-01T03:18:52;15.80;;;11.07;;
14892;SDS011;7538;53.626;9.906;2023-03-01T03:21:19;14.53;;;10.87;;
14892;SDS011;7538;53.626;9.906;2023-03-01T03:23:46;18.87;;;11.30;;
14892;SDS011;7538;53.626;9.906;2023-03-01T03:26:12;17.87;;;11.63;;
14892;SDS011;7538;53.626;9.906;2023-03-01T03:28:40;19.93;;;12.20;;
14892;SDS011;7538;53.626;9.906;2023-03-01T03:31:08;19.73;;;12.40;;
14892;SDS011;7538;53.626;9.906;2023-03-01T03:33:35;18.50;;;11.87;;
14892;SDS011;7538;53.626;9.906;2023-03-01T03:36:02;17.53;;;11.67;;
14892;SDS011;7538;53.626;9.906;2023-03-01T03:38:29;17.37;;;11.13;;
14892;SDS011;7538;53.626;9.906;2023-03-01T03:40:59;19.47;;;12.07;;
14892;SDS011;7538;53.626;9.906;2023-03-01T03:43:28;23.77;;;12.67;;
14892;SDS011;7538;53.626;9.906;2023-03-01T03:45:56;21.50;;;12.47;;
14892;SDS011;7538;53.626;9.906;2023-03-01T03:48:25;25.10;;;13.17;;
14892;SDS011;7538;53.626;9.906;2023-03-01T03:50:52;24.67;;;13.03;;
14892;SDS011;7538;53.626;9.906;2023-03-01T03:53:21;22.87;;;12.67;;
14892;SDS011;7538;53.626;9.906;2023-03-01T03:55:49;18.70;;;11.90;;
14892;SDS011;7538;53.626;9.906;2023-03-01T03:58:16;22.80;;;11.53;;
14892;SDS011;7538;53.626;9.906;2023-03-01T04:00:44;16.90;;;10.77;;
14892;SDS011;7538;53.626;9.906;2023-03-01T04:03:12;20.80;;;10.80;;
14892;SDS011;7538;53.626;9.906;2023-03-01T04:05:42;19.80;;;10.77;;
14892;SDS011;7538;53.626;9.906;2023-03-01T04:08:08;19.87;;;11.30;;
14892;SDS011;7538;53.626;9.906;2023-03-01T04:10:36;18.20;;;11.03;;
14892;SDS011;7538;53.626;9.906;2023-03-01T04:13:05;15.63;;;10.53;;
14892;SDS011;7538;53.626;9.906;2023-03-01T04:15:33;21.07;;;11.40;;
14892;SDS011;7538;53.626;9.906;2023-03-01T04:18:00;17.20;;;10.63;;
14892;SDS011;7538;53.626;9.906;2023-03-01T04:20:28;17.70;;;10.87;;
14892;SDS011;7538;53.626;9.906;2023-03-01T04:23:01;16.33;;;10.10;;
14892;SDS011;7538;53.626;9.906;2023-03-01T04:25:36;17.83;;;10.63;;
14892;SDS011;7538;53.626;9.906;2023-03-01T04:28:04;20.47;;;10.33;;
14892;SDS011;7538;53.626;9.906;2023-03-01T04:30:30;17.90;;;9.63;;
14892;SDS011;7538;53.626;9.906;2023-03-01T04:33:01;15.43;;;9.17;;
14892;SDS011;7538;53.626;9.906;2023-03-01T04:35:29;18.50;;;10.87;;
14892;SDS011;7538;53.626;9.906;2023-03-01T04:37:56;16.23;;;9.13;;
14892;SDS011;7538;53.626;9.906;2023-03-01T04:40:24;18.73;;;9.97;;
14892;SDS011;7538;53.626;9.906;2023-03-01T04:42:51;15.40;;;9.17;;
14892;SDS011;7538;53.626;9.906;2023-03-01T04:45:18;15.33;;;9.23;;
14892;SDS011;7538;53.626;9.906;2023-03-01T04:47:45;15.43;;;9.37;;
14892;SDS011;7538;53.626;9.906;2023-03-01T04:50:13;16.10;;;8.43;;
14892;SDS011;7538;53.626;9.906;2023-03-01T04:52:42;14.70;;;8.80;;
14892;SDS011;7538;53.626;9.906;2023-03-01T04:55:10;12.97;;;7.70;;
14892;SDS011;7538;53.626;9.906;2023-03-01T04:57:39;11.80;;;7.97;;
14892;SDS011;7538;53.626;9.906;2023-03-01T05:00:07;12.03;;;7.70;;
14892;SDS011;7538;53.626;9.906;2023-03-01T05:02:45;14.13;;;8.60;;
14892;SDS011;7538;53.626;9.906;2023-03-01T05:05:19;11.57;;;6.80;;
14892;SDS011;7538;53.626;9.906;2023-03-01T05:07:50;11.00;;;7.20;;
14892;SDS011;7538;53.626;9.906;2023-03-01T05:10:17;11.33;;;6.80;;
14892;SDS011;7538;53.626;9.906;2023-03-01T05:12:46;11.60;;;6.47;;
14892;SDS011;7538;53.626;9.906;2023-03-01T05:15:12;10.60;;;6.70;;
14892;SDS011;7538;53.626;9.906;2023-03-01T05:17:39;10.60;;;6.50;;
14892;SDS011;7538;53.626;9.906;2023-03-01T05:20:07;11.57;;;7.10;;
14892;SDS011;7538;53.626;9.906;2023-03-01T05:22:36;11.13;;;7.03;;
14892;SDS011;7538;53.626;9.906;2023-03-01T05:25:03;10.30;;;6.43;;
14892;SDS011;7538;53.626;9.906;2023-03-01T05:27:32;11.07;;;6.83;;
14892;SDS011;7538;53.626;9.906;2023-03-01T05:30:00;9.03;;;6.80;;
14892;SDS011;7538;53.626;9.906;2023-03-01T05:32:38;9.07;;;6.53;;
14892;SDS011;7538;53.626;9.906;2023-03-01T05:35:06;9.13;;;7.13;;
14892;SDS011;7538;53.626;9.906;2023-03-01T05:37:33;9.57;;;6.63;;
14892;SDS011;7538;53.626;9.906;2023-03-01T05:40:00;8.23;;;6.50;;
14892;SDS011;7538;53.626;9.906;2023-03-01T05:42:28;9.83;;;6.20;;
14892;SDS011;7538;53.626;9.906;2023-03-01T05:44:55;7.80;;;6.10;;
14892;SDS011;7538;53.626;9.906;2023-03-01T05:47:23;8.30;;;6.20;;
14892;SDS011;7538;53.626;9.906;2023-03-01T05:49:50;8.20;;;6.30;;
14892;SDS011;7538;53.626;9.906;2023-03-01T05:52:17;8.70;;;5.60;;
14892;SDS011;7538;53.626;9.906;2023-03-01T05:54:44;8.60;;;6.27;;
14892;SDS011;7538;53.626;9.906;2023-03-01T05:57:10;8.27;;;6.23;;
14892;SDS011;7538;53.626;9.906;2023-03-01T05:59:37;7.97;;;5.70;;
14892;SDS011;7538;53.626;9.906;2023-03-01T06:02:04;6.77;;;5.80;;
14892;SDS011;7538;53.626;9.906;2023-03-01T06:04:32;10.67;;;5.77;;
14892;SDS011;7538;53.626;9.906;2023-03-01T06:06:59;7.40;;;5.57;;
14892;SDS011;7538;53.626;9.906;2023-03-01T06:09:26;6.47;;;5.37;;
14892;SDS011;7538;53.626;9.906;2023-03-01T06:11:52;8.57;;;5.73;;
14892;SDS011;7538;53.626;9.906;2023-03-01T06:14:19;11.13;;;6.43;;
14892;SDS011;7538;53.626;9.906;2023-03-01T06:16:46;10.50;;;6.03;;
14892;SDS011;7538;53.626;9.906;2023-03-01T06:19:13;7.97;;;5.20;;
14892;SDS011;7538;53.626;9.906;2023-03-01T06:21:41;8.30;;;5.93;;
14892;SDS011;7538;53.626;9.906;2023-03-01T06:24:08;8.37;;;5.93;;
14892;SDS011;7538;53.626;9.906;2023-03-01T06:26:34;10.33;;;5.43;;
14892;SDS011;7538;53.626;9.906;2023-03-01T06:29:01;9.57;;;6.30;;
14892;SDS011;7538;53.626;9.906;2023-03-01T06:31:28;8.83;;;5.67;;
14892;SDS011;7538;53.626;9.906;2023-03-01T06:33:55;9.50;;;6.27;;
14892;SDS011;7538;53.626;9.906;2023-03-01T06:36:21;7.13;;;5.70;;
14892;SDS011;7538;53.626;9.906;2023-03-01T06:38:50;9.43;;;6.43;;
14892;SDS011;7538;53.626;9.906;2023-03-01T06:41:16;8.00;;;5.63;;
14892;SDS011;7538;53.626;9.906;2023-03-01T06:43:43;8.43;;;5.80;;
14892;SDS011;7538;53.626;9.906;2023-03-01T06:46:10;7.77;;;5.03;;
14892;SDS011;7538;53.626;9.906;2023-03-01T06:48:37;7.50;;;5.10;;
14892;SDS011;7538;53.626;9.906;2023-03-01T06:51:04;7.30;;;5.63;;
14892;SDS011;7538;53.626;9.906;2023-03-01T06:53:31;7.53;;;5.40;;
14892;SDS011;7538;53.626;9.906;2023-03-01T06:55:59;7.30;;;5.67;;
14892;SDS011;7538;53.626;9.906;2023-03-01T06:58:26;6.20;;;4.90;;
14892;SDS011;7538;53.626;9.906;2023-03-01T07:00:52;6.67;;;4.97;;
14892;SDS011;7538;53.626;9.906;2023-03-01T07:03:19;7.40;;;4.93;;
14892;SDS011;7538;53.626;9.906;2023-03-01T07:05:48;7.77;;;4.60;;
14892;SDS011;7538;53.626;9.906;2023-03-01T07:08:16;6.77;;;5.00;;
14892;SDS011;7538;53.626;9.906;2023-03-01T07:10:43;6.13;;;4.60;;
14892;SDS011;7538;53.626;9.906;2023-03-01T07:13:11;6.53;;;4.97;;
14892;SDS011;7538;53.626;9.906;2023-03-01T07:15:39;5.80;;;4.77;;
14892;SDS011;7538;53.626;9.906;2023-03-01T07:18:06;8.17;;;4.83;;
14892;SDS011;7538;53.626;9.906;2023-03-01T07:20:33;8.97;;;5.37;;
14892;SDS011;7538;53.626;9.906;2023-03-01T07:23:01;6.90;;;5.60;;
14892;SDS011;7538;53.626;9.906;2023-03-01T07:25:28;6.87;;;5.07;;
14892;SDS011;7538;53.626;9.906;2023-03-01T07:27:54;9.07;;;5.03;;
14892;SDS011;7538;53.626;9.906;2023-03-01T07:30:22;7.03;;;5.50;;
14892;SDS011;7538;53.626;9.906;2023-03-01T07:32:51;8.40;;;6.30;;
14892;SDS011;7538;53.626;9.906;2023-03-01T07:35:17;8.00;;;6.03;;
14892;SDS011;7538;53.626;9.906;2023-03-01T07:37:44;9.40;;;6.30;;
14892;SDS011;7538;53.626;9.906;2023-03-01T07:40:11;9.37;;;7.23;;
14892;SDS011;7538;53.626;9.906;2023-03-01T07:42:39;10.30;;;7.00;;
14892;SDS011;7538;53.626;9.906;2023-03-01T07:45:06;8.50;;;6.60;;
14892;SDS011;7538;53.626;9.906;2023-03-01T07:47:35;9.50;;;7.43;;
14892;SDS011;7538;53.626;9.906;2023-03-01T07:50:02;12.33;;;7.50;;
14892;SDS011;7538;53.626;9.906;2023-03-01T07:52:30;11.33;;;7.77;;
14892;SDS011;7538;53.626;9.906;2023-03-01T07:54:57;12.13;;;8.60;;
14892;SDS011;7538;53.626;9.906;2023-03-01T07:57:24;11.47;;;8.37;;
14892;SDS011;7538;53.626;9.906;2023-03-01T07:59:51;11.97;;;8.57;;
14892;SDS011;7538;53.626;9.906;2023-03-01T08:02:17;14.37;;;10.10;;
14892;SDS011;7538;53.626;9.906;2023-03-01T08:04:45;11.93;;;9.17;;
14892;SDS011;7538;53.626;9.906;2023-03-01T08:07:12;11.40;;;9.00;;
14892;SDS011;7538;53.626;9.906;2023-03-01T08:09:39;13.73;;;9.93;;
14892;SDS011;7538;53.626;9.906;2023-03-01T08:12:06;13.40;;;8.90;;
14892;SDS011;7538;53.626;9.906;2023-03-01T08:14:33;12.10;;;10.00;;
14892;SDS011;7538;53.626;9.906;2023-03-01T08:16:59;12.20;;;9.63;;
14892;SDS011;7538;53.626;9.906;2023-03-01T08:19:27;14.53;;;9.00;;
14892;SDS011;7538;53.626;9.906;2023-03-01T08:21:56;12.70;;;9.57;;
14892;SDS011;7538;53.626;9.906;2023-03-01T08:24:25;12.27;;;9.27;;
14892;SDS011;7538;53.626;9.906;2023-03-01T08:26:52;12.67;;;9.37;;
14892;SDS011;7538;53.626;9.906;2023-03-01T08:29:19;13.37;;;9.13;;
14892;SDS011;7538;53.626;9.906;2023-03-01T08:31:46;10.90;;;8.60;;
14892;SDS011;7538;53.626;9.906;2023-03-01T08:34:14;14.20;;;9.20;;
14892;SDS011;7538;53.626;9.906;2023-03-01T08:36:42;12.03;;;8.93;;
14892;SDS011;7538;53.626;9.906;2023-03-01T08:39:12;9.37;;;8.17;;
14892;SDS011;7538;53.626;9.906;2023-03-01T08:41:40;9.47;;;8.10;;
14892;SDS011;7538;53.626;9.906;2023-03-01T08:44:08;12.30;;;8.57;;
14892;SDS011;7538;53.626;9.906;2023-03-01T08:46:37;11.47;;;9.03;;
14892;SDS011;7538;53.626;9.906;2023-03-01T08:49:05;15.23;;;10.00;;
14892;SDS011;7538;53.626;9.906;2023-03-01T08:51:32;15.30;;;10.33;;
14892;SDS011;7538;53.626;9.906;2023-03-01T08:54:01;13.00;;;10.07;;
14892;SDS011;7538;53.626;9.906;2023-03-01T08:56:30;14.30;;;10.13;;
14892;SDS011;7538;53.626;9.906;2023-03-01T08:58:57;14.50;;;10.87;;
14892;SDS011;7538;53.626;9.906;2023-03-01T09:01:24;15.53;;;11.27;;
14892;SDS011;7538;53.626;9.906;2023-03-01T09:03:51;13.60;;;10.70;;
14892;SDS011;7538;53.626;9.906;2023-03-01T09:06:18;13.23;;;10.17;;
14892;SDS011;7538;53.626;9.906;2023-03-01T09:08:45;12.60;;;9.90;;
14892;SDS011;7538;53.626;9.906;2023-03-01T09:11:14;14.57;;;11.17;;
14892;SDS011;7538;53.626;9.906;2023-03-01T09:13:43;11.73;;;10.10;;
14892;SDS011;7538;53.626;9.906;2023-03-01T09:16:11;13.73;;;10.20;;
14892;SDS011;7538;53.626;9.906;2023-03-01T09:18:38;14.67;;;10.10;;
14892;SDS011;7538;53.626;9.906;2023-03-01T09:21:06;13.27;;;10.57;;
14892;SDS011;7538;53.626;9.906;2023-03-01T09:23:34;14.57;;;10.70;;
14892;SDS011;7538;53.626;9.906;2023-03-01T09:26:03;14.20;;;10.80;;
14892;SDS011;7538;53.626;9.906;2023-03-01T09:28:30;15.20;;;11.73;;
14892;SDS011;7538;53.626;9.906;2023-03-01T09:30:59;16.47;;;12.00;;
14892;SDS011;7538;53.626;9.906;2023-03-01T09:33:26;17.53;;;11.83;;
14892;SDS011;7538;53.626;9.906;2023-03-01T09:35:56;15.73;;;11.63;;
14892;SDS011;7538;53.626;9.906;2023-03-01T09:38:23;20.93;;;13.10;;
14892;SDS011;7538;53.626;9.906;2023-03-01T09:40:50;16.80;;;12.33;;
14892;SDS011;7538;53.626;9.906;2023-03-01T09:43:18;19.37;;;12.53;;
14892;SDS011;7538;53.626;9.906;2023-03-01T09:45:52;19.57;;;13.30;;
14892;SDS011;7538;53.626;9.906;2023-03-01T09:48:23;15.07;;;10.73;;
14892;SDS011;7538;53.626;9.906;2023-03-01T09:50:53;15.03;;;10.87;;
14892;SDS011;7538;53.626;9.906;2023-03-01T09:53:20;15.10;;;11.33;;
14892;SDS011;7538;53.626;9.906;2023-03-01T09:55:49;15.10;;;10.30;;
14892;SDS011;7538;53.626;9.906;2023-03-01T09:58:31;15.90;;;10.17;;
14892;SDS011;7538;53.626;9.906;2023-03-01T10:01:08;12.67;;;9.73;;
14892;SDS011;7538;53.626;9.906;2023-03-01T10:03:54;13.87;;;9.97;;
14892;SDS011;7538;53.626;9.906;2023-03-01T10:06:28;12.87;;;9.67;;
14892;SDS011;7538;53.626;9.906;2023-03-01T10:08:55;12.53;;;8.80;;
14892;SDS011;7538;53.626;9.906;2023-03-01T10:11:25;12.60;;;9.93;;
14892;SDS011;7538;53.626;9.906;2023-03-01T10:13:58;11.33;;;9.07;;
14892;SDS011;7538;53.626;9.906;2023-03-01T10:16:32;10.27;;;8.93;;
14892;SDS011;7538;53.626;9.906;2023-03-01T10:19:09;11.10;;;7.80;;
14892;SDS011;7538;53.626;9.906;2023-03-01T10:21:41;9.27;;;7.43;;
14892;SDS011;7538;53.626;9.906;2023-03-01T10:24:11;11.83;;;7.93;;
14892;SDS011;7538;53.626;9.906;2023-03-01T10:26:43;8.83;;;6.80;;
14892;SDS011;7538;53.626;9.906;2023-03-01T10:29:14;9.73;;;7.20;;
14892;SDS011;7538;53.626;9.906;2023-03-01T10:31:42;8.70;;;6.90;;
14892;SDS011;7538;53.626;9.906;2023-03-01T10:34:13;7.80;;;6.43;;
14892;SDS011;7538;53.626;9.906;2023-03-01T10:36:41;9.25;;;7.10;;
14892;SDS011;7538;53.626;9.906;2023-03-01T10:39:12;10.70;;;6.85;;
14892;SDS011;7538;53.626;9.906;2023-03-01T10:41:52;8.83;;;6.80;;
14892;SDS011;7538;53.626;9.906;2023-03-01T10:44:38;8.63;;;5.93;;
14892;SDS011;7538;53.626;9.906;2023-03-01T10:47:11;9.27;;;6.57;;
14892;SDS011;7538;53.626;9.906;2023-03-01T10:49:52;10.50;;;7.53;;
14892;SDS011;7538;53.626;9.906;2023-03-01T10:52:21;10.93;;;7.50;;
14892;SDS011;7538;53.626;9.906;2023-03-01T10:54:51;9.90;;;7.00;;
14892;SDS011;7538;53.626;9.906;2023-03-01T10:57:30;9.97;;;6.77;;
14892;SDS011;7538;53.626;9.906;2023-03-01T11:00:14;9.20;;;7.03;;
14892;SDS011;7538;53.626;9.906;2023-03-01T11:02:47;9.97;;;7.30;;
14892;SDS011;7538;53.626;9.906;2023-03-01T11:05:18;8.67;;;7.17;;
14892;SDS011;7538;53.626;9.906;2023-03-01T11:07:49;11.27;;;7.67;;
14892;SDS011;7538;53.626;9.906;2023-03-01T11:10:18;12.40;;;7.47;;
14892;SDS011;7538;53.626;9.906;2023-03-01T11:12:46;11.50;;;7.47;;
14892;SDS011;7538;53.626;9.906;2023-03-01T11:15:20;11.63;;;8.50;;
14892;SDS011;7538;53.626;9.906;2023-03-01T11:17:51;11.00;;;7.97;;
14892;SDS011;7538;53.626;9.906;2023-03-01T11:20:23;10.30;;;7.90;;
14892;SDS011;7538;53.626;9.906;2023-03-01T11:22:54;9.97;;;7.40;;
14892;SDS011;7538;53.626;9.906;2023-03-01T11:25:24;13.13;;;8.67;;
14892;SDS011;7538;53.626;9.906;2023-03-01T11:27:53;10.33;;;7.80;;
14892;SDS011;7538;53.626;9.906;2023-03-01T11:30:21;12.20;;;8.60;;
14892;SDS011;7538;53.626;9.906;2023-03-01T11:32:54;11.67;;;8.47;;
14892;SDS011;7538;53.626;9.906;2023-03-01T11:35:31;11.13;;;7.60;;
14892;SDS011;7538;53.626;9.906;2023-03-01T11:38:03;11.20;;;7.47;;
14892;SDS011;7538;53.626;9.906;2023-03-01T11:40:43;8.20;;;6.50;;
14892;SDS011;7538;53.626;9.906;2023-03-01T11:43:17;11.03;;;7.87;;
14892;SDS011;7538;53.626;9.906;2023-03-01T11:49:02;8.50;;;6.80;;
14892;SDS011;7538;53.626;9.906;2023-03-01T11:51:48;8.90;;;7.23;;
14892;SDS011;7538;53.626;9.906;2023-03-01T11:54:27;7.33;;;6.47;;
14892;SDS011;7538;53.626;9.906;2023-03-01T11:57:03;11.20;;;6.87;;
14892;SDS011;7538;53.626;9.906;2023-03-01T11:59:52;8.33;;;7.00;;
14892;SDS011;7538;53.626;9.906;2023-03-01T12:02:49;10.97;;;7.77;;
14892;SDS011;7538;53.626;9.906;2023-03-01T12:05:55;8.67;;;6.80;;
14892;SDS011;7538;53.626;9.906;2023-03-01T12:08:35;10.90;;;8.27;;
14892;SDS011;7538;53.626;9.906;2023-03-01T12:11:10;8.87;;;7.30;;
14892;SDS011;7538;53.626;9.906;2023-03-01T12:14:04;11.10;;;7.67;;
14892;SDS011;7538;53.626;9.906;2023-03-01T12:16:53;9.93;;;7.37;;
14892;SDS011;7538;53.626;9.906;2023-03-01T12:19:50;9.30;;;7.30;;
14892;SDS011;7538;53.626;9.906;2023-03-01T12:22:29;9.30;;;8.20;;
14892;SDS011;7538;53.626;9.906;2023-03-01T12:25:06;11.53;;;9.10;;
14892;SDS011;7538;53.626;9.906;2023-03-01T12:28:00;10.50;;;7.63;;
14892;SDS011;7538;53.626;9.906;2023-03-01T12:30:44;11.10;;;8.50;;
14892;SDS011;7538;53.626;9.906;2023-03-01T12:33:22;11.33;;;8.70;;
14892;SDS011;7538;53.626;9.906;2023-03-01T12:36:11;12.27;;;8.90;;
14892;SDS011;7538;53.626;9.906;2023-03-01T12:38:59;10.37;;;7.57;;
14892;SDS011;7538;53.626;9.906;2023-03-01T12:41:42;11.43;;;8.67;;
14892;SDS011;7538;53.626;9.906;2023-03-01T12:44:25;9.30;;;7.87;;
14892;SDS011;7538;53.626;9.906;2023-03-01T12:49:54;12.63;;;8.93;;
14892;SDS011;7538;53.626;9.906;2023-03-01T12:52:26;11.10;;;8.30;;
14892;SDS011;7538;53.626;9.906;2023-03-01T12:54:57;13.37;;;8.67;;
14892;SDS011;7538;53.626;9.906;2023-03-01T12:57:30;10.53;;;8.83;;
14892;SDS011;7538;53.626;9.906;2023-03-01T13:00:08;9.90;;;8.07;;
14892;SDS011;7538;53.626;9.906;2023-03-01T13:02:49;11.07;;;8.87;;
14892;SDS011;7538;53.626;9.906;2023-03-01T13:05:24;13.10;;;8.30;;
14892;SDS011;7538;53.626;9.906;2023-03-01T13:07:59;11.40;;;8.03;;
14892;SDS011;7538;53.626;9.906;2023-03-01T13:10:33;10.20;;;7.53;;
14892;SDS011;7538;53.626;9.906;2023-03-01T13:13:13;11.27;;;8.47;;
14892;SDS011;7538;53.626;9.906;2023-03-01T13:15:45;11.37;;;8.07;;
14892;SDS011;7538;53.626;9.906;2023-03-01T13:18:29;11.20;;;7.83;;
14892;SDS011;7538;53.626;9.906;2023-03-01T13:20:57;10.07;;;7.57;;
14892;SDS011;7538;53.626;9.906;2023-03-01T13:23:27;11.73;;;8.50;;
14892;SDS011;7538;53.626;9.906;2023-03-01T13:26:01;12.90;;;7.87;;
14892;SDS011;7538;53.626;9.906;2023-03-01T13:28:41;13.80;;;7.63;;
14892;SDS011;7538;53.626;9.906;2023-03-01T13:34:40;11.13;;;8.00;;
14892;SDS011;7538;53.626;9.906;2023-03-01T13:37:30;10.33;;;7.30;;
14892;SDS011;7538;53.626;9.906;2023-03-01T13:40:04;7.73;;;5.70;;
14892;SDS011;7538;53.626;9.906;2023-03-01T13:42:52;7.33;;;5.70;;
14892;SDS011;7538;53.626;9.906;2023-03-01T13:45:22;8.27;;;6.10;;
14892;SDS011;7538;53.626;9.906;2023-03-01T13:48:00;11.03;;;7.00;;
14892;SDS011;7538;53.626;9.906;2023-03-01T13:50:33;7.87;;;6.33;;
14892;SDS011;7538;53.626;9.906;2023-03-01T13:53:03;9.73;;;6.87;;
14892;SDS011;7538;53.626;9.906;2023-03-01T13:55:35;8.60;;;6.20;;
14892;SDS011;7538;53.626;9.906;2023-03-01T13:58:04;6.80;;;5.20;;
14892;SDS011;7538;53.626;9.906;2023-03-01T14:00:54;8.33;;;6.13;;
14892;SDS011;7538;53.626;9.906;2023-03-01T14:03:22;7.10;;;5.50;;
14892;SDS011;7538;53.626;9.906;2023-03-01T14:06:03;8.77;;;5.97;;
14892;SDS011;7538;53.626;9.906;2023-03-01T14:08:33;7.57;;;5.70;;
14892;SDS011;7538;53.626;9.906;2023-03-01T14:14:19;7.77;;;5.63;;
14892;SDS011;7538;53.626;9.906;2023-03-01T14:16:58;9.83;;;6.30;;
14892;SDS011;7538;53.626;9.906;2023-03-01T14:19:31;8.33;;;5.93;;
14892;SDS011;7538;53.626;9.906;2023-03-01T14:22:02;9.33;;;6.57;;
14892;SDS011;7538;53.626;9.906;2023-03-01T14:24:39;9.67;;;5.83;;
14892;SDS011;7538;53.626;9.906;2023-03-01T14:27:14;7.77;;;5.90;;
14892;SDS011;7538;53.626;9.906;2023-03-01T14:29:41;8.53;;;6.53;;
14892;SDS011;7538;53.626;9.906;2023-03-01T14:32:11;9.97;;;6.07;;
14892;SDS011;7538;53.626;9.906;2023-03-01T14:34:43;7.60;;;5.97;;
14892;SDS011;7538;53.626;9.906;2023-03-01T14:37:11;7.10;;;5.73;;
14892;SDS011;7538;53.626;9.906;2023-03-01T14:39:46;10.57;;;6.80;;
14892;SDS011;7538;53.626;9.906;2023-03-01T14:42:13;10.10;;;7.57;;
14892;SDS011;7538;53.626;9.906;2023-03-01T14:44:42;10.07;;;6.87;;
14892;SDS011;7538;53.626;9.906;2023-03-01T14:47:13;9.07;;;6.30;;
14892;SDS011;7538;53.626;9.906;2023-03-01T14:49:42;10.20;;;7.27;;
14892;SDS011;7538;53.626;9.906;2023-03-01T14:52:17;8.33;;;6.43;;
14892;SDS011;7538;53.626;9.906;2023-03-01T14:54:46;9.43;;;7.20;;
14892;SDS011;7538;53.626;9.906;2023-03-01T14:57:15;10.37;;;7.30;;
14892;SDS011;7538;53.626;9.906;2023-03-01T14:59:44;10.03;;;7.17;;
14892;SDS011;7538;53.626;9.906;2023-03-01T15:02:15;9.80;;;7.37;;
14892;SDS011;7538;53.626;9.906;2023-03-01T15:04:47;11.50;;;8.07;;
14892;SDS011;7538;53.626;9.906;2023-03-01T15:07:16;12.83;;;7.57;;
14892;SDS011;7538;53.626;9.906;2023-03-01T15:09:44;10.50;;;7.97;;
14892;SDS011;7538;53.626;9.906;2023-03-01T15:12:25;13.53;;;8.10;;
14892;SDS011;7538;53.626;9.906;2023-03-01T15:15:02;13.47;;;9.23;;
14892;SDS011;7538;53.626;9.906;2023-03-01T15:18:02;21.37;;;11.20;;
14892;SDS011;7538;53.626;9.906;2023-03-01T15:20:31;13.57;;;9.73;;